New Shoreham, Rhode Island
Current Conditions -  °F | °C
As of 7:35 PM on Saturday 25 Oct 2014 (Local Time) from KBID Reporting Station
Clear Clear  
Wind Chill: 61°   Ceiling: Unl
Heat Index: 61°   Visibility: 10mi
Dew Point: 46°   Wind: 15mph
Humidity: 59%   Direction: 250°WSW
Pressure: 29.63"   Gusts: 21mph
Location:  41.1768°N, 71.5785°W
Report Text: KBID 252335Z AUTO 25013G18KT 10SM CLR 16/08 A2963 RMK AO1
Loading
Personal Weather Stations






























Interactive Weather Map New forecast layout! Learn more

10-Day Weather Forecast

Advertisements
Track Severe Weather on mobile